sensor_id;sensor_type;location;lat;lon;timestamp;P1;durP1;ratioP1;P2;durP2;ratioP2
23716;SDS011;22094;52.130;5.598;2023-03-14T00:00:04;12.30;;;3.90;;
23716;SDS011;22094;52.130;5.598;2023-03-14T00:02:35;10.95;;;3.53;;
23716;SDS011;22094;52.130;5.598;2023-03-14T00:05:01;14.73;;;3.88;;
23716;SDS011;22094;52.130;5.598;2023-03-14T00:07:31;14.20;;;4.55;;
23716;SDS011;22094;52.130;5.598;2023-03-14T00:10:00;15.75;;;3.97;;
23716;SDS011;22094;52.130;5.598;2023-03-14T00:12:27;13.00;;;3.90;;
23716;SDS011;22094;52.130;5.598;2023-03-14T00:14:52;17.33;;;4.53;;
23716;SDS011;22094;52.130;5.598;2023-03-14T00:17:18;13.05;;;4.05;;
23716;SDS011;22094;52.130;5.598;2023-03-14T00:19:43;12.38;;;3.38;;
23716;SDS011;22094;52.130;5.598;2023-03-14T00:22:09;13.90;;;3.75;;
23716;SDS011;22094;52.130;5.598;2023-03-14T00:24:34;12.00;;;3.55;;
23716;SDS011;22094;52.130;5.598;2023-03-14T00:27:00;10.82;;;3.42;;
23716;SDS011;22094;52.130;5.598;2023-03-14T00:29:26;14.55;;;3.50;;
23716;SDS011;22094;52.130;5.598;2023-03-14T00:31:51;15.13;;;3.22;;
23716;SDS011;22094;52.130;5.598;2023-03-14T00:34:17;13.35;;;3.75;;
23716;SDS011;22094;52.130;5.598;2023-03-14T00:36:42;18.75;;;3.50;;
23716;SDS011;22094;52.130;5.598;2023-03-14T00:39:10;13.10;;;3.15;;
23716;SDS011;22094;52.130;5.598;2023-03-14T00:41:35;11.27;;;2.92;;
23716;SDS011;22094;52.130;5.598;2023-03-14T00:44:01;14.15;;;2.95;;
23716;SDS011;22094;52.130;5.598;2023-03-14T00:46:27;12.85;;;3.05;;
23716;SDS011;22094;52.130;5.598;2023-03-14T00:48:52;13.43;;;3.05;;
23716;SDS011;22094;52.130;5.598;2023-03-14T00:51:18;13.40;;;3.47;;
23716;SDS011;22094;52.130;5.598;2023-03-14T00:53:43;13.02;;;2.90;;
23716;SDS011;22094;52.130;5.598;2023-03-14T00:56:10;14.73;;;3.30;;
23716;SDS011;22094;52.130;5.598;2023-03-14T00:58:37;12.07;;;2.78;;
23716;SDS011;22094;52.130;5.598;2023-03-14T01:01:07;14.23;;;2.90;;
23716;SDS011;22094;52.130;5.598;2023-03-14T01:03:34;12.63;;;3.08;;
23716;SDS011;22094;52.130;5.598;2023-03-14T01:06:07;12.25;;;2.67;;
23716;SDS011;22094;52.130;5.598;2023-03-14T01:08:43;13.30;;;2.60;;
23716;SDS011;22094;52.130;5.598;2023-03-14T01:11:11;10.30;;;2.60;;
23716;SDS011;22094;52.130;5.598;2023-03-14T01:13:39;13.40;;;2.97;;
23716;SDS011;22094;52.130;5.598;2023-03-14T01:16:06;14.32;;;3.30;;
23716;SDS011;22094;52.130;5.598;2023-03-14T01:18:33;10.68;;;2.95;;
23716;SDS011;22094;52.130;5.598;2023-03-14T01:21:00;10.73;;;2.97;;
23716;SDS011;22094;52.130;5.598;2023-03-14T01:23:27;8.90;;;2.67;;
23716;SDS011;22094;52.130;5.598;2023-03-14T01:25:52;10.32;;;2.67;;
23716;SDS011;22094;52.130;5.598;2023-03-14T01:28:18;8.48;;;2.53;;
23716;SDS011;22094;52.130;5.598;2023-03-14T01:30:43;9.95;;;2.60;;
23716;SDS011;22094;52.130;5.598;2023-03-14T01:33:09;9.85;;;2.67;;
23716;SDS011;22094;52.130;5.598;2023-03-14T01:35:36;10.13;;;3.00;;
23716;SDS011;22094;52.130;5.598;2023-03-14T01:38:01;12.07;;;2.63;;
23716;SDS011;22094;52.130;5.598;2023-03-14T01:40:27;16.02;;;2.47;;
23716;SDS011;22094;52.130;5.598;2023-03-14T01:42:57;13.50;;;2.40;;
23716;SDS011;22094;52.130;5.598;2023-03-14T01:48:24;9.77;;;2.70;;
23716;SDS011;22094;52.130;5.598;2023-03-14T01:50:52;10.98;;;2.50;;
23716;SDS011;22094;52.130;5.598;2023-03-14T01:53:18;8.57;;;2.33;;
23716;SDS011;22094;52.130;5.598;2023-03-14T01:55:46;9.95;;;2.47;;
23716;SDS011;22094;52.130;5.598;2023-03-14T01:58:17;11.82;;;2.38;;
23716;SDS011;22094;52.130;5.598;2023-03-14T02:00:45;9.80;;;2.70;;
23716;SDS011;22094;52.130;5.598;2023-03-14T02:03:12;9.88;;;2.55;;
23716;SDS011;22094;52.130;5.598;2023-03-14T02:05:41;14.45;;;2.67;;
23716;SDS011;22094;52.130;5.598;2023-03-14T02:08:13;10.93;;;2.45;;
23716;SDS011;22094;52.130;5.598;2023-03-14T02:10:41;14.63;;;3.13;;
23716;SDS011;22094;52.130;5.598;2023-03-14T02:13:09;14.43;;;3.17;;
23716;SDS011;22094;52.130;5.598;2023-03-14T02:15:36;15.30;;;2.83;;
23716;SDS011;22094;52.130;5.598;2023-03-14T02:18:03;17.75;;;3.20;;
23716;SDS011;22094;52.130;5.598;2023-03-14T02:23:10;13.98;;;2.85;;
23716;SDS011;22094;52.130;5.598;2023-03-14T02:25:45;11.20;;;2.42;;
23716;SDS011;22094;52.130;5.598;2023-03-14T02:28:16;10.95;;;2.85;;
23716;SDS011;22094;52.130;5.598;2023-03-14T02:30:43;10.27;;;3.15;;
23716;SDS011;22094;52.130;5.598;2023-03-14T02:33:09;10.00;;;3.13;;
23716;SDS011;22094;52.130;5.598;2023-03-14T02:35:59;13.25;;;3.78;;
23716;SDS011;22094;52.130;5.598;2023-03-14T02:38:37;14.77;;;4.68;;
23716;SDS011;22094;52.130;5.598;2023-03-14T02:41:13;10.60;;;4.28;;
23716;SDS011;22094;52.130;5.598;2023-03-14T02:43:39;12.20;;;5.00;;
23716;SDS011;22094;52.130;5.598;2023-03-14T02:46:05;14.00;;;5.32;;
23716;SDS011;22094;52.130;5.598;2023-03-14T02:48:35;13.15;;;5.43;;
23716;SDS011;22094;52.130;5.598;2023-03-14T02:51:04;12.48;;;5.43;;
23716;SDS011;22094;52.130;5.598;2023-03-14T02:53:32;14.05;;;5.82;;
23716;SDS011;22094;52.130;5.598;2023-03-14T02:55:58;14.15;;;5.13;;
23716;SDS011;22094;52.130;5.598;2023-03-14T02:58:25;14.20;;;5.07;;
23716;SDS011;22094;52.130;5.598;2023-03-14T03:00:52;13.25;;;5.18;;
23716;SDS011;22094;52.130;5.598;2023-03-14T03:03:18;13.25;;;6.10;;
23716;SDS011;22094;52.130;5.598;2023-03-14T03:05:47;10.93;;;4.32;;
23716;SDS011;22094;52.130;5.598;2023-03-14T03:08:15;11.40;;;4.30;;
23716;SDS011;22094;52.130;5.598;2023-03-14T03:10:41;13.77;;;4.57;;
23716;SDS011;22094;52.130;5.598;2023-03-14T03:13:07;14.88;;;4.97;;
23716;SDS011;22094;52.130;5.598;2023-03-14T03:15:32;10.57;;;4.60;;
23716;SDS011;22094;52.130;5.598;2023-03-14T03:17:59;11.90;;;3.97;;
23716;SDS011;22094;52.130;5.598;2023-03-14T03:20:24;14.13;;;4.40;;
23716;SDS011;22094;52.130;5.598;2023-03-14T03:22:50;13.32;;;4.25;;
23716;SDS011;22094;52.130;5.598;2023-03-14T03:25:16;12.75;;;4.05;;
23716;SDS011;22094;52.130;5.598;2023-03-14T03:27:42;12.98;;;3.95;;
23716;SDS011;22094;52.130;5.598;2023-03-14T03:30:08;18.05;;;4.18;;
23716;SDS011;22094;52.130;5.598;2023-03-14T03:32:35;16.80;;;4.20;;
23716;SDS011;22094;52.130;5.598;2023-03-14T03:35:02;12.70;;;3.85;;
23716;SDS011;22094;52.130;5.598;2023-03-14T03:37:29;18.15;;;4.75;;
23716;SDS011;22094;52.130;5.598;2023-03-14T03:39:55;12.93;;;3.70;;
23716;SDS011;22094;52.130;5.598;2023-03-14T03:42:21;10.23;;;3.60;;
23716;SDS011;22094;52.130;5.598;2023-03-14T03:44:46;12.45;;;3.65;;
23716;SDS011;22094;52.130;5.598;2023-03-14T03:47:14;16.65;;;3.80;;
23716;SDS011;22094;52.130;5.598;2023-03-14T03:49:40;12.15;;;3.75;;
23716;SDS011;22094;52.130;5.598;2023-03-14T03:52:05;16.50;;;4.05;;
23716;SDS011;22094;52.130;5.598;2023-03-14T03:54:31;12.38;;;3.80;;
23716;SDS011;22094;52.130;5.598;2023-03-14T03:56:56;12.68;;;3.55;;
23716;SDS011;22094;52.130;5.598;2023-03-14T03:59:22;16.83;;;3.65;;
23716;SDS011;22094;52.130;5.598;2023-03-14T04:01:48;14.20;;;3.80;;
23716;SDS011;22094;52.130;5.598;2023-03-14T04:04:13;10.30;;;3.03;;
23716;SDS011;22094;52.130;5.598;2023-03-14T04:06:39;11.23;;;3.60;;
23716;SDS011;22094;52.130;5.598;2023-03-14T04:09:08;13.85;;;3.83;;
23716;SDS011;22094;52.130;5.598;2023-03-14T04:11:35;12.18;;;3.17;;
23716;SDS011;22094;52.130;5.598;2023-03-14T04:14:01;12.25;;;3.38;;
23716;SDS011;22094;52.130;5.598;2023-03-14T04:16:27;8.98;;;3.20;;
23716;SDS011;22094;52.130;5.598;2023-03-14T04:18:52;12.48;;;3.50;;
23716;SDS011;22094;52.130;5.598;2023-03-14T04:21:18;10.95;;;3.20;;
23716;SDS011;22094;52.130;5.598;2023-03-14T04:23:44;15.57;;;3.15;;
23716;SDS011;22094;52.130;5.598;2023-03-14T04:26:09;13.05;;;3.13;;
23716;SDS011;22094;52.130;5.598;2023-03-14T04:28:35;11.90;;;3.20;;
23716;SDS011;22094;52.130;5.598;2023-03-14T04:31:12;8.85;;;3.03;;
23716;SDS011;22094;52.130;5.598;2023-03-14T04:33:40;11.60;;;3.78;;
23716;SDS011;22094;52.130;5.598;2023-03-14T04:36:05;14.40;;;3.70;;
23716;SDS011;22094;52.130;5.598;2023-03-14T04:38:32;13.27;;;3.15;;
23716;SDS011;22094;52.130;5.598;2023-03-14T04:40:58;14.98;;;3.70;;
23716;SDS011;22094;52.130;5.598;2023-03-14T04:43:24;12.02;;;3.22;;
23716;SDS011;22094;52.130;5.598;2023-03-14T04:45:50;11.48;;;2.97;;
23716;SDS011;22094;52.130;5.598;2023-03-14T04:48:18;13.85;;;3.33;;
23716;SDS011;22094;52.130;5.598;2023-03-14T04:50:43;13.20;;;3.53;;
23716;SDS011;22094;52.130;5.598;2023-03-14T04:53:11;12.60;;;3.80;;
23716;SDS011;22094;52.130;5.598;2023-03-14T04:55:37;10.30;;;3.30;;
23716;SDS011;22094;52.130;5.598;2023-03-14T04:58:02;12.75;;;3.72;;
23716;SDS011;22094;52.130;5.598;2023-03-14T05:00:28;10.80;;;3.17;;
23716;SDS011;22094;52.130;5.598;2023-03-14T05:02:54;10.75;;;3.20;;
23716;SDS011;22094;52.130;5.598;2023-03-14T05:05:20;9.60;;;3.22;;
23716;SDS011;22094;52.130;5.598;2023-03-14T05:07:46;11.88;;;2.95;;
23716;SDS011;22094;52.130;5.598;2023-03-14T05:10:12;9.93;;;2.97;;
23716;SDS011;22094;52.130;5.598;2023-03-14T05:12:37;11.18;;;2.80;;
23716;SDS011;22094;52.130;5.598;2023-03-14T05:15:03;9.57;;;2.83;;
23716;SDS011;22094;52.130;5.598;2023-03-14T05:17:29;9.18;;;2.67;;
23716;SDS011;22094;52.130;5.598;2023-03-14T05:19:57;10.55;;;3.10;;
23716;SDS011;22094;52.130;5.598;2023-03-14T05:22:22;10.82;;;3.20;;
23716;SDS011;22094;52.130;5.598;2023-03-14T05:24:48;10.00;;;3.42;;
23716;SDS011;22094;52.130;5.598;2023-03-14T05:27:13;8.52;;;3.10;;
23716;SDS011;22094;52.130;5.598;2023-03-14T05:29:39;10.68;;;3.42;;
23716;SDS011;22094;52.130;5.598;2023-03-14T05:32:05;10.82;;;3.20;;
23716;SDS011;22094;52.130;5.598;2023-03-14T05:34:30;10.57;;;4.07;;
23716;SDS011;22094;52.130;5.598;2023-03-14T05:36:56;10.50;;;4.15;;
23716;SDS011;22094;52.130;5.598;2023-03-14T05:39:22;9.40;;;4.53;;
23716;SDS011;22094;52.130;5.598;2023-03-14T05:41:47;12.85;;;4.40;;
23716;SDS011;22094;52.130;5.598;2023-03-14T05:44:13;14.43;;;4.78;;
23716;SDS011;22094;52.130;5.598;2023-03-14T05:46:38;15.20;;;4.88;;
23716;SDS011;22094;52.130;5.598;2023-03-14T05:49:04;15.45;;;5.25;;
23716;SDS011;22094;52.130;5.598;2023-03-14T05:51:29;12.48;;;4.75;;
23716;SDS011;22094;52.130;5.598;2023-03-14T05:53:55;13.27;;;4.80;;
23716;SDS011;22094;52.130;5.598;2023-03-14T05:56:20;11.02;;;5.10;;
23716;SDS011;22094;52.130;5.598;2023-03-14T05:58:46;11.27;;;5.00;;
23716;SDS011;22094;52.130;5.598;2023-03-14T06:01:12;14.77;;;5.30;;
23716;SDS011;22094;52.130;5.598;2023-03-14T06:03:37;12.18;;;5.50;;
23716;SDS011;22094;52.130;5.598;2023-03-14T06:06:03;15.48;;;5.50;;
23716;SDS011;22094;52.130;5.598;2023-03-14T06:08:28;16.77;;;5.63;;
23716;SDS011;22094;52.130;5.598;2023-03-14T06:10:54;14.82;;;5.57;;
23716;SDS011;22094;52.130;5.598;2023-03-14T06:13:21;14.73;;;6.18;;
23716;SDS011;22094;52.130;5.598;2023-03-14T06:15:47;10.18;;;5.53;;
23716;SDS011;22094;52.130;5.598;2023-03-14T06:18:12;15.23;;;6.00;;
23716;SDS011;22094;52.130;5.598;2023-03-14T06:20:39;15.15;;;6.20;;
23716;SDS011;22094;52.130;5.598;2023-03-14T06:23:05;16.45;;;6.32;;
23716;SDS011;22094;52.130;5.598;2023-03-14T06:25:32;12.57;;;5.90;;
23716;SDS011;22094;52.130;5.598;2023-03-14T06:27:58;12.23;;;5.25;;
23716;SDS011;22094;52.130;5.598;2023-03-14T06:30:23;13.50;;;6.40;;
23716;SDS011;22094;52.130;5.598;2023-03-14T06:32:49;12.40;;;5.72;;
23716;SDS011;22094;52.130;5.598;2023-03-14T06:35:14;15.65;;;6.22;;
23716;SDS011;22094;52.130;5.598;2023-03-14T06:37:40;14.70;;;6.78;;
23716;SDS011;22094;52.130;5.598;2023-03-14T06:40:06;14.07;;;6.07;;
23716;SDS011;22094;52.130;5.598;2023-03-14T06:42:33;14.68;;;6.50;;
23716;SDS011;22094;52.130;5.598;2023-03-14T06:44:59;14.07;;;7.22;;
23716;SDS011;22094;52.130;5.598;2023-03-14T06:47:24;16.80;;;7.28;;
23716;SDS011;22094;52.130;5.598;2023-03-14T06:49:50;18.13;;;7.47;;
23716;SDS011;22094;52.130;5.598;2023-03-14T06:52:15;13.98;;;7.70;;
23716;SDS011;22094;52.130;5.598;2023-03-14T06:54:41;17.95;;;8.30;;
23716;SDS011;22094;52.130;5.598;2023-03-14T06:57:06;21.60;;;8.32;;
23716;SDS011;22094;52.130;5.598;2023-03-14T06:59:32;19.73;;;8.68;;
23716;SDS011;22094;52.130;5.598;2023-03-14T07:01:58;11.27;;;7.72;;
23716;SDS011;22094;52.130;5.598;2023-03-14T07:04:23;15.65;;;7.63;;
23716;SDS011;22094;52.130;5.598;2023-03-14T07:06:49;9.02;;;4.78;;
23716;SDS011;22094;52.130;5.598;2023-03-14T07:09:15;3.78;;;3.10;;
23716;SDS011;22094;52.130;5.598;2023-03-14T07:11:42;4.47;;;2.30;;
23716;SDS011;22094;52.130;5.598;2023-03-14T07:14:08;6.15;;;1.50;;
23716;SDS011;22094;52.130;5.598;2023-03-14T07:16:33;5.00;;;1.35;;
23716;SDS011;22094;52.130;5.598;2023-03-14T07:19:00;3.03;;;1.67;;
23716;SDS011;22094;52.130;5.598;2023-03-14T07:21:26;3.47;;;1.80;;
23716;SDS011;22094;52.130;5.598;2023-03-14T07:23:51;3.88;;;1.80;;
23716;SDS011;22094;52.130;5.598;2023-03-14T07:26:17;4.70;;;2.03;;
23716;SDS011;22094;52.130;5.598;2023-03-14T07:28:43;4.93;;;2.10;;
23716;SDS011;22094;52.130;5.598;2023-03-14T07:31:08;5.85;;;2.30;;
23716;SDS011;22094;52.130;5.598;2023-03-14T07:33:34;4.90;;;2.40;;
23716;SDS011;22094;52.130;5.598;2023-03-14T07:35:59;6.63;;;2.42;;
23716;SDS011;22094;52.130;5.598;2023-03-14T07:38:25;7.03;;;2.60;;
23716;SDS011;22094;52.130;5.598;2023-03-14T07:40:57;5.07;;;1.80;;
23716;SDS011;22094;52.130;5.598;2023-03-14T07:43:26;6.97;;;2.20;;
23716;SDS011;22094;52.130;5.598;2023-03-14T07:45:52;4.43;;;2.45;;
23716;SDS011;22094;52.130;5.598;2023-03-14T07:48:18;3.42;;;2.03;;
23716;SDS011;22094;52.130;5.598;2023-03-14T07:50:47;4.43;;;1.90;;
23716;SDS011;22094;52.130;5.598;2023-03-14T07:53:13;5.57;;;1.90;;
23716;SDS011;22094;52.130;5.598;2023-03-14T07:55:39;2.47;;;1.85;;
23716;SDS011;22094;52.130;5.598;2023-03-14T07:58:05;2.22;;;1.85;;
23716;SDS011;22094;52.130;5.598;2023-03-14T08:00:31;3.92;;;2.13;;
23716;SDS011;22094;52.130;5.598;2023-03-14T08:02:57;3.50;;;2.30;;
23716;SDS011;22094;52.130;5.598;2023-03-14T08:05:23;5.95;;;2.47;;
23716;SDS011;22094;52.130;5.598;2023-03-14T08:07:49;3.60;;;2.30;;
23716;SDS011;22094;52.130;5.598;2023-03-14T08:10:14;7.65;;;3.05;;
23716;SDS011;22094;52.130;5.598;2023-03-14T08:12:47;9.10;;;2.97;;
23716;SDS011;22094;52.130;5.598;2023-03-14T08:15:18;10.98;;;2.70;;
23716;SDS011;22094;52.130;5.598;2023-03-14T08:17:44;9.38;;;1.90;;
23716;SDS011;22094;52.130;5.598;2023-03-14T08:20:10;8.57;;;1.88;;
23716;SDS011;22094;52.130;5.598;2023-03-14T08:22:37;10.93;;;1.80;;
23716;SDS011;22094;52.130;5.598;2023-03-14T08:25:03;8.45;;;1.95;;
23716;SDS011;22094;52.130;5.598;2023-03-14T08:27:29;6.88;;;2.05;;
23716;SDS011;22094;52.130;5.598;2023-03-14T08:29:54;8.20;;;1.85;;
23716;SDS011;22094;52.130;5.598;2023-03-14T08:32:20;9.63;;;2.03;;
23716;SDS011;22094;52.130;5.598;2023-03-14T08:34:48;10.95;;;2.20;;
23716;SDS011;22094;52.130;5.598;2023-03-14T08:37:14;5.20;;;1.77;;
23716;SDS011;22094;52.130;5.598;2023-03-14T08:39:40;6.78;;;1.92;;
23716;SDS011;22094;52.130;5.598;2023-03-14T08:42:06;6.10;;;1.50;;
23716;SDS011;22094;52.130;5.598;2023-03-14T08:44:31;10.38;;;2.15;;
23716;SDS011;22094;52.130;5.598;2023-03-14T08:46:57;5.90;;;1.50;;
23716;SDS011;22094;52.130;5.598;2023-03-14T08:49:22;7.25;;;1.77;;
23716;SDS011;22094;52.130;5.598;2023-03-14T08:51:48;5.65;;;1.80;;
23716;SDS011;22094;52.130;5.598;2023-03-14T08:54:13;7.18;;;1.50;;
23716;SDS011;22094;52.130;5.598;2023-03-14T08:56:39;7.88;;;1.67;;
23716;SDS011;22094;52.130;5.598;2023-03-14T08:59:05;5.25;;;2.10;;
23716;SDS011;22094;52.130;5.598;2023-03-14T09:01:31;4.78;;;2.25;;
23716;SDS011;22094;52.130;5.598;2023-03-14T09:03:57;4.03;;;2.30;;
23716;SDS011;22094;52.130;5.598;2023-03-14T09:06:23;5.43;;;1.85;;
23716;SDS011;22094;52.130;5.598;2023-03-14T09:08:48;6.47;;;1.48;;
23716;SDS011;22094;52.130;5.598;2023-03-14T09:11:14;3.22;;;1.27;;
23716;SDS011;22094;52.130;5.598;2023-03-14T09:13:40;6.43;;;1.55;;
23716;SDS011;22094;52.130;5.598;2023-03-14T09:16:06;3.85;;;1.15;;
23716;SDS011;22094;52.130;5.598;2023-03-14T09:18:32;7.20;;;1.70;;
23716;SDS011;22094;52.130;5.598;2023-03-14T09:20:58;5.70;;;1.33;;
23716;SDS011;22094;52.130;5.598;2023-03-14T09:23:24;3.65;;;1.30;;
23716;SDS011;22094;52.130;5.598;2023-03-14T09:25:54;7.55;;;1.75;;
23716;SDS011;22094;52.130;5.598;2023-03-14T09:28:23;6.15;;;1.58;;
23716;SDS011;22094;52.130;5.598;2023-03-14T09:30:49;5.90;;;2.17;;
23716;SDS011;22094;52.130;5.598;2023-03-14T09:33:15;11.10;;;2.00;;
23716;SDS011;22094;52.130;5.598;2023-03-14T09:35:41;8.98;;;2.33;;
23716;SDS011;22094;52.130;5.598;2023-03-14T09:38:06;14.00;;;2.30;;
23716;SDS011;22094;52.130;5.598;2023-03-14T09:40:33;12.05;;;1.92;;
23716;SDS011;22094;52.130;5.598;2023-03-14T09:43:00;14.88;;;2.80;;
23716;SDS011;22094;52.130;5.598;2023-03-14T09:45:33;9.70;;;2.25;;
23716;SDS011;22094;52.130;5.598;2023-03-14T09:48:02;11.93;;;3.90;;
23716;SDS011;22094;52.130;5.598;2023-03-14T09:50:31;17.02;;;4.28;;
23716;SDS011;22094;52.130;5.598;2023-03-14T09:53:03;15.98;;;2.63;;
23716;SDS011;22094;52.130;5.598;2023-03-14T09:55:36;14.50;;;2.53;;
23716;SDS011;22094;52.130;5.598;2023-03-14T09:58:02;8.98;;;2.35;;
23716;SDS011;22094;52.130;5.598;2023-03-14T10:00:33;17.65;;;3.15;;
23716;SDS011;22094;52.130;5.598;2023-03-14T10:03:09;13.45;;;4.85;;
23716;SDS011;22094;52.130;5.598;2023-03-14T10:05:46;21.45;;;3.50;;
23716;SDS011;22094;52.130;5.598;2023-03-14T10:08:12;21.88;;;2.92;;
23716;SDS011;22094;52.130;5.598;2023-03-14T10:10:38;22.35;;;3.67;;
23716;SDS011;22094;52.130;5.598;2023-03-14T10:15:41;15.13;;;3.00;;
23716;SDS011;22094;52.130;5.598;2023-03-14T10:18:13;21.92;;;3.92;;
23716;SDS011;22094;52.130;5.598;2023-03-14T10:20:41;17.67;;;3.38;;
23716;SDS011;22094;52.130;5.598;2023-03-14T10:25:38;17.70;;;2.90;;
23716;SDS011;22094;52.130;5.598;2023-03-14T10:28:10;15.63;;;3.20;;
23716;SDS011;22094;52.130;5.598;2023-03-14T10:31:11;15.63;;;3.15;;
23716;SDS011;22094;52.130;5.598;2023-03-14T10:33:37;15.40;;;3.50;;
23716;SDS011;22094;52.130;5.598;2023-03-14T10:36:05;26.38;;;3.38;;
23716;SDS011;22094;52.130;5.598;2023-03-14T10:41:50;18.48;;;3.20;;
23716;SDS011;22094;52.130;5.598;2023-03-14T10:44:20;17.25;;;2.65;;
23716;SDS011;22094;52.130;5.598;2023-03-14T10:46:55;21.73;;;3.40;;
23716;SDS011;22094;52.130;5.598;2023-03-14T10:49:33;19.45;;;3.15;;
23716;SDS011;22094;52.130;5.598;2023-03-14T10:52:14;19.48;;;3.60;;
23716;SDS011;22094;52.130;5.598;2023-03-14T10:55:01;18.40;;;3.70;;
23716;SDS011;22094;52.130;5.598;2023-03-14T10:57:37;26.70;;;3.65;;
23716;SDS011;22094;52.130;5.598;2023-03-14T11:00:05;19.90;;;3.30;;
23716;SDS011;22094;52.130;5.598;2023-03-14T11:02:43;16.02;;;3.35;;
23716;SDS011;22094;52.130;5.598;2023-03-14T11:07:55;15.40;;;3.05;;
23716;SDS011;22094;52.130;5.598;2023-03-14T11:20:42;18.38;;;3.58;;
23716;SDS011;22094;52.130;5.598;2023-03-14T11:23:22;18.00;;;3.15;;
23716;SDS011;22094;52.130;5.598;2023-03-14T11:25:54;18.02;;;2.83;;
23716;SDS011;22094;52.130;5.598;2023-03-14T11:29:08;17.98;;;3.00;;
23716;SDS011;22094;52.130;5.598;2023-03-14T11:36:31;15.80;;;3.15;;
23716;SDS011;22094;52.130;5.598;2023-03-14T11:39:02;17.50;;;3.08;;
23716;SDS011;22094;52.130;5.598;2023-03-14T11:41:38;20.00;;;3.75;;
23716;SDS011;22094;52.130;5.598;2023-03-14T11:44:39;12.20;;;2.60;;
23716;SDS011;22094;52.130;5.598;2023-03-14T11:47:09;14.13;;;2.88;;
23716;SDS011;22094;52.130;5.598;2023-03-14T11:52:27;13.23;;;2.40;;
23716;SDS011;22094;52.130;5.598;2023-03-14T11:54:57;10.85;;;2.33;;
23716;SDS011;22094;52.130;5.598;2023-03-14T11:57:45;13.18;;;3.10;;
23716;SDS011;22094;52.130;5.598;2023-03-14T12:00:24;14.45;;;2.88;;
23716;SDS011;22094;52.130;5.598;2023-03-14T12:05:59;15.68;;;2.70;;
23716;SDS011;22094;52.130;5.598;2023-03-14T12:08:46;13.35;;;2.45;;
23716;SDS011;22094;52.130;5.598;2023-03-14T12:14:17;14.98;;;3.03;;
23716;SDS011;22094;52.130;5.598;2023-03-14T12:16:48;7.13;;;1.70;;
23716;SDS011;22094;52.130;5.598;2023-03-14T12:21:53;10.38;;;2.10;;
23716;SDS011;22094;52.130;5.598;2023-03-14T12:24:33;13.70;;;2.15;;
23716;SDS011;22094;52.130;5.598;2023-03-14T12:27:02;11.30;;;2.08;;
23716;SDS011;22094;52.130;5.598;2023-03-14T12:29:28;10.98;;;2.38;;
23716;SDS011;22094;52.130;5.598;2023-03-14T12:34:34;10.15;;;2.00;;
23716;SDS011;22094;52.130;5.598;2023-03-14T12:42:58;13.38;;;2.05;;
23716;SDS011;22094;52.130;5.598;2023-03-14T12:45:29;16.17;;;2.35;;
23716;SDS011;22094;52.130;5.598;2023-03-14T12:51:00;13.57;;;1.92;;
23716;SDS011;22094;52.130;5.598;2023-03-14T12:53:47;8.73;;;1.58;;
23716;SDS011;22094;52.130;5.598;2023-03-14T13:02:10;7.97;;;1.88;;
23716;SDS011;22094;52.130;5.598;2023-03-14T13:05:02;6.43;;;1.67;;
23716;SDS011;22094;52.130;5.598;2023-03-14T13:10:28;9.60;;;1.92;;
23716;SDS011;22094;52.130;5.598;2023-03-14T13:15:30;7.35;;;1.50;;
23716;SDS011;22094;52.130;5.598;2023-03-14T13:18:26;7.25;;;1.67;;
23716;SDS011;22094;52.130;5.598;2023-03-14T13:23:22;7.22;;;1.33;;
23716;SDS011;22094;52.130;5.598;2023-03-14T13:26:13;8.00;;;1.65;;
23716;SDS011;22094;52.130;5.598;2023-03-14T13:28:40;6.38;;;1.65;;
23716;SDS011;22094;52.130;5.598;2023-03-14T13:31:12;7.63;;;1.67;;
23716;SDS011;22094;52.130;5.598;2023-03-14T13:33:56;9.18;;;1.77;;
23716;SDS011;22094;52.130;5.598;2023-03-14T13:36:27;8.75;;;1.85;;
23716;SDS011;22094;52.130;5.598;2023-03-14T13:38:57;4.68;;;1.38;;
23716;SDS011;22094;52.130;5.598;2023-03-14T13:41:24;5.65;;;1.38;;
23716;SDS011;22094;52.130;5.598;2023-03-14T13:43:50;6.35;;;1.70;;
23716;SDS011;22094;52.130;5.598;2023-03-14T13:46:20;5.28;;;1.30;;
23716;SDS011;22094;52.130;5.598;2023-03-14T13:48:48;2.88;;;1.30;;
23716;SDS011;22094;52.130;5.598;2023-03-14T13:51:18;7.47;;;1.70;;
23716;SDS011;22094;52.130;5.598;2023-03-14T13:53:49;10.57;;;1.75;;
23716;SDS011;22094;52.130;5.598;2023-03-14T13:56:23;8.85;;;1.70;;
23716;SDS011;22094;52.130;5.598;2023-03-14T13:58:54;7.18;;;1.58;;
23716;SDS011;22094;52.130;5.598;2023-03-14T14:01:22;7.20;;;1.88;;
23716;SDS011;22094;52.130;5.598;2023-03-14T14:03:52;7.15;;;1.55;;
23716;SDS011;22094;52.130;5.598;2023-03-14T14:06:30;9.43;;;1.67;;
23716;SDS011;22094;52.130;5.598;2023-03-14T14:09:10;4.03;;;1.10;;
23716;SDS011;22094;52.130;5.598;2023-03-14T14:11:45;5.65;;;1.20;;
23716;SDS011;22094;52.130;5.598;2023-03-14T14:14:21;6.43;;;1.40;;
23716;SDS011;22094;52.130;5.598;2023-03-14T14:16:52;8.38;;;1.38;;
23716;SDS011;22094;52.130;5.598;2023-03-14T14:19:19;7.65;;;1.40;;
23716;SDS011;22094;52.130;5.598;2023-03-14T14:21:48;5.82;;;1.65;;
23716;SDS011;22094;52.130;5.598;2023-03-14T14:24:14;5.80;;;1.40;;
23716;SDS011;22094;52.130;5.598;2023-03-14T14:26:41;5.43;;;1.33;;
23716;SDS011;22094;52.130;5.598;2023-03-14T14:29:55;7.97;;;1.55;;
23716;SDS011;22094;52.130;5.598;2023-03-14T14:37:19;5.88;;;1.60;;
23716;SDS011;22094;52.130;5.598;2023-03-14T14:39:53;6.57;;;1.67;;
23716;SDS011;22094;52.130;5.598;2023-03-14T14:42:21;7.00;;;1.55;;
23716;SDS011;22094;52.130;5.598;2023-03-14T14:44:52;10.23;;;1.83;;
23716;SDS011;22094;52.130;5.598;2023-03-14T14:47:18;5.28;;;1.23;;
23716;SDS011;22094;52.130;5.598;2023-03-14T14:49:47;7.25;;;1.65;;
23716;SDS011;22094;52.130;5.598;2023-03-14T14:52:15;13.02;;;2.08;;
23716;SDS011;22094;52.130;5.598;2023-03-14T14:54:52;7.68;;;1.98;;
23716;SDS011;22094;52.130;5.598;2023-03-14T14:57:23;8.77;;;1.60;;
23716;SDS011;22094;52.130;5.598;2023-03-14T15:00:08;9.05;;;1.60;;
23716;SDS011;22094;52.130;5.598;2023-03-14T15:02:47;12.15;;;1.60;;
23716;SDS011;22094;52.130;5.598;2023-03-14T15:05:14;6.63;;;1.67;;
23716;SDS011;22094;52.130;5.598;2023-03-14T15:07:41;7.78;;;1.73;;
23716;SDS011;22094;52.130;5.598;2023-03-14T15:10:11;8.43;;;1.98;;
23716;SDS011;22094;52.130;5.598;2023-03-14T15:12:38;9.50;;;1.52;;
23716;SDS011;22094;52.130;5.598;2023-03-14T15:15:03;6.35;;;1.55;;
23716;SDS011;22094;52.130;5.598;2023-03-14T15:17:30;8.25;;;1.50;;
23716;SDS011;22094;52.130;5.598;2023-03-14T15:19:56;11.10;;;2.08;;
23716;SDS011;22094;52.130;5.598;2023-03-14T15:22:23;6.32;;;1.67;;
23716;SDS011;22094;52.130;5.598;2023-03-14T15:24:49;10.73;;;1.73;;
23716;SDS011;22094;52.130;5.598;2023-03-14T15:27:15;10.65;;;2.55;;
23716;SDS011;22094;52.130;5.598;2023-03-14T15:29:42;9.52;;;1.73;;
23716;SDS011;22094;52.130;5.598;2023-03-14T15:32:10;8.38;;;1.88;;
23716;SDS011;22094;52.130;5.598;2023-03-14T15:34:37;8.23;;;2.10;;
23716;SDS011;22094;52.130;5.598;2023-03-14T15:37:03;7.82;;;2.13;;
23716;SDS011;22094;52.130;5.598;2023-03-14T15:39:32;11.80;;;2.00;;
23716;SDS011;22094;52.130;5.598;2023-03-14T15:41:59;11.13;;;2.10;;
23716;SDS011;22094;52.130;5.598;2023-03-14T15:44:25;7.32;;;1.90;;
23716;SDS011;22094;52.130;5.598;2023-03-14T15:46:51;9.95;;;2.08;;
23716;SDS011;22094;52.130;5.598;2023-03-14T15:49:16;8.43;;;1.70;;
23716;SDS011;22094;52.130;5.598;2023-03-14T15:51:42;7.88;;;2.13;;
23716;SDS011;22094;52.130;5.598;2023-03-14T15:54:08;8.57;;;1.75;;
23716;SDS011;22094;52.130;5.598;2023-03-14T15:56:33;10.52;;;1.80;;
23716;SDS011;22094;52.130;5.598;2023-03-14T15:58:59;7.47;;;1.30;;